Time,TemperatureF,DewpointF,PressureIn,WindDirection,WindDirectionDegrees,WindSpeedMPH,WindSpeedGustMPH,Humidity,HourlyPrecipIn,Conditions,Clouds,dailyrainin,SoftwareType,DateUTC
2013-05-18 19:26:00,79.5,58.7,30.95,South,169,4.0,4.0,49,0.00,,,0.00,VWS V13.01,2013-05-19 00:26:00,
2013-05-18 19:31:00,79.5,58.7,30.95,SSE,164,4.0,4.0,49,0.00,,,0.00,VWS V13.01,2013-05-19 00:31:00,
2013-05-18 19:32:00,79.5,58.7,30.95,East,97,3.1,3.1,49,0.00,,,0.00,VWS V13.01,2013-05-19 00:32:00,
2013-05-18 19:36:00,79.2,58.4,30.95,SSE,153,7.6,7.6,49,0.00,,,0.00,VWS V13.01,2013-05-19 00:36:00,
2013-05-18 19:37:00,79.2,58.4,30.95,South,181,5.8,5.8,49,0.00,,,0.00,VWS V13.01,2013-05-19 00:37:00,
2013-05-18 19:41:00,78.8,58.0,30.92,SSE,152,5.8,5.8,49,0.00,,,0.00,VWS V13.01,2013-05-19 00:41:00,
2013-05-18 19:42:00,78.8,58.0,30.92,SSE,152,5.8,5.8,49,0.00,,,0.00,VWS V13.01,2013-05-19 00:42:00,
2013-05-18 19:46:00,78.4,61.0,30.92,SSE,154,3.1,3.1,55,0.00,,,0.00,VWS V13.01,2013-05-19 00:46:00,
2013-05-18 19:47:00,78.4,61.0,30.92,South,173,3.6,3.6,55,0.00,,,0.00,VWS V13.01,2013-05-19 00:47:00,
2013-05-18 19:51:00,78.1,60.6,30.92,SSE,166,3.6,3.6,55,0.00,,,0.00,VWS V13.01,2013-05-19 00:51:00,
2013-05-18 19:52:00,78.1,60.6,30.92,South,179,3.1,3.1,55,0.00,,,0.00,VWS V13.01,2013-05-19 00:52:00,
2013-05-18 19:56:00,77.7,60.3,30.92,SSE,161,5.8,5.8,55,0.00,,,0.00,VWS V13.01,2013-05-19 00:56:00,
2013-05-18 19:57:00,77.7,60.3,30.92,South,173,4.0,4.0,55,0.00,,,0.00,VWS V13.01,2013-05-19 00:57:00,
2013-05-18 20:01:00,77.5,60.1,30.92,South,175,5.4,5.4,55,0.00,,,0.00,VWS V13.01,2013-05-19 01:01:00,
2013-05-18 20:02:00,77.5,60.1,30.92,SSE,151,5.8,5.8,55,0.00,,,0.00,VWS V13.01,2013-05-19 01:02:00,
2013-05-18 20:06:00,77.2,59.8,30.92,South,171,4.0,4.0,55,0.00,,,0.00,VWS V13.01,2013-05-19 01:06:00,
2013-05-18 20:07:00,77.2,59.8,30.92,South,173,4.0,4.0,55,0.00,,,0.00,VWS V13.01,2013-05-19 01:07:00,
2013-05-18 20:12:00,76.6,59.3,30.92,South,176,3.1,3.1,55,0.00,,,0.00,VWS V13.01,2013-05-19 01:12:00,
2013-05-18 20:17:00,76.3,58.9,30.92,SSW,195,3.6,3.6,55,0.00,,,0.00,VWS V13.01,2013-05-19 01:17:00,
2013-05-18 20:22:00,76.3,58.9,30.92,SSE,156,3.1,3.1,55,0.00,,,0.00,VWS V13.01,2013-05-19 01:22:00,
2013-05-18 20:23:00,76.3,58.9,30.92,South,185,3.1,3.1,55,0.00,,,0.00,VWS V13.01,2013-05-19 01:23:00,
2013-05-18 20:27:00,76.1,58.8,30.89,SE,140,0.0,0.0,55,0.00,,,0.00,VWS V13.01,2013-05-19 01:27:00,
2013-05-18 20:28:00,75.9,58.6,30.89,SE,145,0.0,0.0,55,0.00,,,0.00,VWS V13.01,2013-05-19 01:28:00,
2013-05-18 20:32:00,75.7,58.4,30.89,South,185,2.7,2.7,55,0.00,,,0.00,VWS V13.01,2013-05-19 01:32:00,
2013-05-18 20:33:00,75.7,58.4,30.89,South,187,0.0,0.0,55,0.00,,,0.00,VWS V13.01,2013-05-19 01:33:00,
2013-05-18 20:37:00,75.6,58.3,30.89,South,184,0.0,0.0,55,0.00,,,0.00,VWS V13.01,2013-05-19 01:37:00,
2013-05-18 20:38:00,75.4,58.1,30.89,South,176,5.4,5.4,55,0.00,,,0.00,VWS V13.01,2013-05-19 01:38:00,
2013-05-18 20:42:00,75.4,58.1,30.89,SSW,210,3.6,3.6,55,0.00,,,0.00,VWS V13.01,2013-05-19 01:42:00,
2013-05-18 20:43:00,75.4,58.1,30.89,SSE,164,0.0,0.0,55,0.00,,,0.00,VWS V13.01,2013-05-19 01:43:00,
2013-05-18 20:47:00,75.2,57.9,30.89,ENE,65,0.0,0.0,55,0.00,,,0.00,VWS V13.01,2013-05-19 01:47:00,
2013-05-18 20:48:00,75.2,57.9,30.89,ENE,70,0.0,0.0,55,0.00,,,0.00,VWS V13.01,2013-05-19 01:48:00,
2013-05-18 20:52:00,74.8,57.6,30.89,SW,215,0.0,0.0,55,0.00,,,0.00,VWS V13.01,2013-05-19 01:52:00,
2013-05-18 20:53:00,74.8,57.6,30.89,SW,214,0.0,0.0,55,0.00,,,0.00,VWS V13.01,2013-05-19 01:53:00,
2013-05-18 20:57:00,74.7,57.4,30.92,SSW,204,0.0,0.0,55,0.00,,,0.00,VWS V13.01,2013-05-19 01:57:00,
2013-05-18 20:58:00,74.7,57.4,30.92,SSW,200,0.0,0.0,55,0.00,,,0.00,VWS V13.01,2013-05-19 01:58:00,
2013-05-18 21:03:00,74.7,57.4,30.92,SSW,199,0.0,0.0,55,0.00,,,0.00,VWS V13.01,2013-05-19 02:03:00,
2013-05-18 21:04:00,74.7,57.4,30.92,SSW,199,0.0,0.0,55,0.00,,,0.00,VWS V13.01,2013-05-19 02:04:00,
2013-05-18 21:08:00,74.7,57.4,30.92,SSW,199,0.0,0.0,55,0.00,,,0.00,VWS V13.01,2013-05-19 02:08:00,
2013-05-18 21:09:00,74.7,57.4,30.92,SSW,199,0.0,0.0,55,0.00,,,0.00,VWS V13.01,2013-05-19 02:09:00,
2013-05-18 21:13:00,74.7,57.4,30.89,SE,136,0.0,0.0,55,0.00,,,0.00,VWS V13.01,2013-05-19 02:13:00,
2013-05-18 21:14:00,74.7,57.4,30.89,SSW,199,0.0,0.0,55,0.00,,,0.00,VWS V13.01,2013-05-19 02:14:00,
2013-05-18 21:18:00,74.5,57.3,30.89,SSW,197,0.0,0.0,55,0.00,,,0.00,VWS V13.01,2013-05-19 02:18:00,
2013-05-18 21:19:00,74.5,57.3,30.89,SSW,197,0.0,0.0,55,0.00,,,0.00,VWS V13.01,2013-05-19 02:19:00,
2013-05-18 21:23:00,74.7,57.4,30.89,South,169,3.6,3.6,55,0.00,,,0.00,VWS V13.01,2013-05-19 02:23:00,
2013-05-18 21:24:00,74.7,57.4,30.89,South,169,2.7,2.7,55,0.00,,,0.00,VWS V13.01,2013-05-19 02:24:00,
2013-05-18 21:28:00,74.7,57.4,30.92,SE,127,0.0,0.0,55,0.00,,,0.00,VWS V13.01,2013-05-19 02:28:00,
2013-05-18 21:29:00,74.7,57.4,30.92,SE,127,0.0,0.0,55,0.00,,,0.00,VWS V13.01,2013-05-19 02:29:00,
2013-05-18 21:33:00,74.7,57.4,30.92,SE,138,0.0,0.0,55,0.00,,,0.00,VWS V13.01,2013-05-19 02:33:00,
2013-05-18 21:34:00,74.7,57.4,30.92,South,182,0.0,0.0,55,0.00,,,0.00,VWS V13.01,2013-05-19 02:34:00,
2013-05-18 21:38:00,75.4,58.1,30.92,South,180,7.6,7.6,55,0.00,,,0.00,VWS V13.01,2013-05-19 02:38:00,
2013-05-18 21:39:00,75.4,58.1,30.92,South,177,6.7,6.7,55,0.00,,,0.00,VWS V13.01,2013-05-19 02:39:00,
2013-05-18 21:43:00,76.1,58.8,30.92,South,182,8.3,8.3,55,0.00,,,0.00,VWS V13.01,2013-05-19 02:43:00,
2013-05-18 21:44:00,76.1,58.8,30.92,South,177,7.6,7.6,55,0.00,,,0.00,VWS V13.01,2013-05-19 02:44:00,
2013-05-18 21:48:00,76.1,58.8,30.92,SE,145,6.3,6.3,55,0.00,,,0.00,VWS V13.01,2013-05-19 02:48:00,
2013-05-18 21:49:00,76.3,58.9,30.92,SSE,150,5.4,5.4,55,0.00,,,0.00,VWS V13.01,2013-05-19 02:49:00,
2013-05-18 21:53:00,76.1,58.8,30.92,SSE,164,3.6,3.6,55,0.00,,,0.00,VWS V13.01,2013-05-19 02:53:00,
2013-05-18 21:54:00,76.1,58.8,30.92,South,170,3.1,3.1,55,0.00,,,0.00,VWS V13.01,2013-05-19 02:54:00,
2013-05-18 21:58:00,75.9,58.6,30.92,South,178,7.2,7.2,55,0.00,,,0.00,VWS V13.01,2013-05-19 02:58:00,
2013-05-18 21:59:00,75.9,58.6,30.92,South,182,5.4,5.4,55,0.00,,,0.00,VWS V13.01,2013-05-19 02:59:00,
2013-05-18 22:03:00,75.9,58.6,30.92,SSE,147,4.0,4.0,55,0.00,,,0.00,VWS V13.01,2013-05-19 03:03:00,
2013-05-18 22:04:00,76.1,58.8,30.92,SSE,154,6.3,6.3,55,0.00,,,0.00,VWS V13.01,2013-05-19 03:04:00,
2013-05-18 22:08:00,75.9,58.6,30.92,South,186,2.7,2.7,55,0.00,,,0.00,VWS V13.01,2013-05-19 03:08:00,
2013-05-18 22:09:00,75.7,58.4,30.92,South,174,4.9,4.9,55,0.00,,,0.00,VWS V13.01,2013-05-19 03:09:00,
2013-05-18 22:13:00,75.6,58.3,30.92,SSE,166,3.6,3.6,55,0.00,,,0.00,VWS V13.01,2013-05-19 03:13:00,
2013-05-18 22:14:00,75.6,58.3,30.92,SSW,207,3.1,3.1,55,0.00,,,0.00,VWS V13.01,2013-05-19 03:14:00,
2013-05-18 22:18:00,75.4,58.1,30.92,SSE,167,3.6,3.6,55,0.00,,,0.00,VWS V13.01,2013-05-19 03:18:00,
2013-05-18 22:19:00,75.4,58.1,30.92,SSE,149,4.9,4.9,55,0.00,,,0.00,VWS V13.01,2013-05-19 03:19:00,
2013-05-18 22:23:00,75.2,57.9,30.92,SSE,157,2.7,2.7,55,0.00,,,0.00,VWS V13.01,2013-05-19 03:23:00,
2013-05-18 22:24:00,75.2,57.9,30.92,SE,133,3.6,3.6,55,0.00,,,0.00,VWS V13.01,2013-05-19 03:24:00,
2013-05-18 22:28:00,75.2,57.9,30.92,SE,144,5.4,5.4,55,0.00,,,0.00,VWS V13.01,2013-05-19 03:28:00,
2013-05-18 22:29:00,75.4,58.1,30.92,South,179,7.6,7.6,55,0.00,,,0.00,VWS V13.01,2013-05-19 03:29:00,
2013-05-18 22:33:00,75.4,58.1,30.92,SSE,158,4.5,4.5,55,0.00,,,0.00,VWS V13.01,2013-05-19 03:33:00,
2013-05-18 22:34:00,75.4,58.1,30.92,South,171,5.8,5.8,55,0.00,,,0.00,VWS V13.01,2013-05-19 03:34:00,
2013-05-18 22:38:00,75.2,57.9,30.92,South,180,7.6,7.6,55,0.00,,,0.00,VWS V13.01,2013-05-19 03:38:00,
2013-05-18 22:39:00,75.2,57.9,30.92,SSE,165,5.4,5.4,55,0.00,,,0.00,VWS V13.01,2013-05-19 03:39:00,
2013-05-18 22:40:00,75.4,58.1,30.92,SE,135,7.6,7.6,55,0.00,,,0.00,VWS V13.01,2013-05-19 03:40:00,
2013-05-18 22:43:00,75.2,57.9,30.92,South,184,6.3,6.3,55,0.00,,,0.00,VWS V13.01,2013-05-19 03:43:00,
2013-05-18 22:44:00,75.2,57.9,30.92,South,183,8.1,8.1,55,0.00,,,0.00,VWS V13.01,2013-05-19 03:44:00,
2013-05-18 22:45:00,75.4,58.1,30.92,South,178,6.7,6.7,55,0.00,,,0.00,VWS V13.01,2013-05-19 03:45:00,
2013-05-18 22:48:00,75.4,58.1,30.92,South,190,8.7,8.7,55,0.00,,,0.00,VWS V13.01,2013-05-19 03:48:00,
2013-05-18 22:49:00,75.6,58.3,30.92,SE,140,11.0,11.0,55,0.00,,,0.00,VWS V13.01,2013-05-19 03:49:00,
2013-05-18 22:50:00,75.6,58.3,30.92,SSE,167,3.1,3.1,55,0.00,,,0.00,VWS V13.01,2013-05-19 03:50:00,
2013-05-18 22:53:00,75.6,58.3,30.92,SSE,163,5.8,5.8,55,0.00,,,0.00,VWS V13.01,2013-05-19 03:53:00,
2013-05-18 22:54:00,75.6,58.3,30.92,SSE,163,5.8,5.8,55,0.00,,,0.00,VWS V13.01,2013-05-19 03:54:00,
2013-05-18 22:55:00,75.6,58.3,30.92,South,176,10.5,10.5,55,0.00,,,0.00,VWS V13.01,2013-05-19 03:55:00,
2013-05-18 22:58:00,75.7,58.4,30.92,SSE,168,8.1,8.1,55,0.00,,,0.00,VWS V13.01,2013-05-19 03:58:00,
2013-05-18 22:59:00,75.7,58.4,30.92,SE,145,8.1,8.1,55,0.00,,,0.00,VWS V13.01,2013-05-19 03:59:00,
2013-05-18 23:00:00,75.7,58.4,30.92,South,183,8.7,8.7,55,0.00,,,0.00,VWS V13.01,2013-05-19 04:00:00,
2013-05-18 23:01:00,75.9,58.6,30.92,SSE,168,11.0,11.0,55,0.00,,,0.00,VWS V13.01,2013-05-19 04:01:00,
2013-05-18 23:06:00,76.1,58.8,30.92,SSE,155,15.0,15.0,55,0.00,,,0.00,VWS V13.01,2013-05-19 04:06:00,
2013-05-18 23:11:00,75.7,58.4,30.92,South,176,10.5,10.5,55,0.00,,,0.00,VWS V13.01,2013-05-19 04:11:00,
2013-05-18 23:16:00,76.1,58.8,30.92,South,178,8.7,8.7,55,0.00,,,0.00,VWS V13.01,2013-05-19 04:16:00,
2013-05-18 23:21:00,75.9,58.6,30.92,SSE,166,10.1,10.1,55,0.00,,,0.00,VWS V13.01,2013-05-19 04:21:00,
2013-05-18 23:26:00,76.1,58.8,30.92,South,174,15.4,15.4,55,0.00,,,0.00,VWS V13.01,2013-05-19 04:26:00,
2013-05-18 23:31:00,75.9,58.6,30.89,South,176,12.3,12.3,55,0.00,,,0.00,VWS V13.01,2013-05-19 04:31:00,
2013-05-18 23:36:00,75.9,58.6,30.89,South,186,10.5,10.5,55,0.00,,,0.00,VWS V13.01,2013-05-19 04:36:00,
2013-05-18 23:41:00,75.7,58.4,30.89,SSE,166,8.7,8.7,55,0.00,,,0.00,VWS V13.01,2013-05-19 04:41:00,
2013-05-18 23:46:00,75.9,58.6,30.89,SSE,149,12.8,12.8,55,0.00,,,0.00,VWS V13.01,2013-05-19 04:46:00,
2013-05-18 23:47:00,75.9,58.6,30.89,South,183,13.6,13.6,55,0.00,,,0.00,VWS V13.01,2013-05-19 04:47:00,
2013-05-18 23:51:00,75.9,58.6,30.89,South,179,9.2,9.2,55,0.00,,,0.00,VWS V13.01,2013-05-19 04:51:00,
2013-05-18 23:52:00,75.9,58.6,30.89,SSW,195,8.7,8.7,55,0.00,,,0.00,VWS V13.01,2013-05-19 04:52:00,
2013-05-18 23:56:00,75.9,58.6,30.92,South,173,7.6,7.6,55,0.00,,,0.00,VWS V13.01,2013-05-19 04:56:00,
2013-05-18 23:57:00,75.7,58.4,30.92,SSW,193,7.6,7.6,55,0.00,,,0.00,VWS V13.01,2013-05-19 04:57:00,